Astana, Kazakhstan
Current Conditions -  °F | °C
As of 7:30 PM on Friday 28 Nov 2014 (Local Time) from UACC Reporting Station
Clear Clear  
Wind Chill: -23°   Ceiling: Unl
Heat Index: -11°   Visibility: 6mi
Dew Point: -15°   Wind: 4mph
Humidity: 84%   Direction: 190°S
Pressure: 30.77"   Gusts: NA
Location:  51.17°N, 71.5°E
Report Text: UACC 281330Z 19002MPS 9000 SKC M24/M26 Q1042 R22/8/0065 NOSIGRMK QFE749/0999
Loading
Personal Weather Stations






























Interactive Weather Map New forecast layout! Learn more

10-Day Weather Forecast

Advertisements
Track Severe Weather on mobile